Time;durP1;ratioP1;P1;durP2;ratioP2;P2;SDS_P1;SDS_P2;PMS_P1;PMS_P2;Temp;Humidity;BMP_temperature;BMP_pressure;BME280_temperature;BME280_humidity;BME280_pressure;Samples;Min_cycle;Max_cycle;Signal;HPM_P1;HPM_P2
2023/08/25 00:01:30;;;;;;;54.60;44.15;;;18.90;99.90;;;;;;5057004;28;20119;-68
2023/08/25 00:03:56;;;;;;;50.63;43.35;;;18.90;99.90;;;;;;5073260;28;20398;-68
2023/08/25 00:06:22;;;;;;;47.78;40.65;;;18.90;99.90;;;;;;5073440;28;20047;-68
2023/08/25 00:08:48;;;;;;;55.40;44.88;;;18.80;99.90;;;;;;5072786;28;20071;-68
2023/08/25 00:11:14;;;;;;;56.00;47.97;;;18.90;99.90;;;;;;5073427;28;20040;-68
2023/08/25 00:13:41;;;;;;;49.28;39.75;;;18.70;99.90;;;;;;5056801;28;20039;-68
2023/08/25 00:16:07;;;;;;;47.38;40.70;;;18.80;99.90;;;;;;5090647;28;20067;-68
2023/08/25 00:18:32;;;;;;;52.40;41.95;;;18.90;99.90;;;;;;5072968;28;20040;-68
2023/08/25 00:20:58;;;;;;;50.08;39.50;;;18.70;99.90;;;;;;5056653;28;20468;-68
2023/08/25 00:23:24;;;;;;;50.58;40.75;;;18.80;99.90;;;;;;5072253;28;20040;-68
2023/08/25 00:25:50;;;;;;;48.65;41.05;;;18.70;99.90;;;;;;5073340;28;20387;-68
2023/08/25 00:28:15;;;;;;;50.03;39.00;;;18.70;99.90;;;;;;5056627;28;20044;-68
2023/08/25 00:30:41;;;;;;;47.13;38.78;;;18.70;99.90;;;;;;5072643;28;20040;-68
2023/08/25 00:33:07;;;;;;;51.38;42.20;;;18.70;99.90;;;;;;5091030;28;20063;-68
2023/08/25 00:35:33;;;;;;;54.33;44.83;;;18.70;99.90;;;;;;5071313;28;20040;-68
2023/08/25 00:37:59;;;;;;;51.72;40.97;;;18.60;99.90;;;;;;5072668;28;20433;-68
2023/08/25 00:40:25;;;;;;;54.15;41.22;;;18.60;99.90;;;;;;5073272;28;20119;-68
2023/08/25 00:42:50;;;;;;;49.78;40.75;;;18.60;99.90;;;;;;5091073;28;20115;-68
2023/08/25 00:45:16;;;;;;;55.08;40.13;;;18.70;99.90;;;;;;5072343;28;20115;-68
2023/08/25 00:47:42;;;;;;;62.95;48.58;;;18.60;99.90;;;;;;5090830;28;20040;-68
2023/08/25 00:50:10;;;;;;;60.45;49.53;;;18.60;99.90;;;;;;5055992;28;20461;-68
2023/08/25 00:52:36;;;;;;;56.40;42.80;;;18.60;99.90;;;;;;5049714;28;1160690;-68
2023/08/25 00:55:03;;;;;;;55.42;44.05;;;18.60;99.90;;;;;;5073693;28;20040;-68
2023/08/25 00:57:31;;;;;;;66.50;47.80;;;18.60;99.90;;;;;;5073431;28;20170;-68
2023/08/25 00:59:58;;;;;;;60.85;48.60;;;18.70;99.90;;;;;;5056626;28;20040;-68
2023/08/25 01:02:24;;;;;;;64.55;50.03;;;18.70;99.90;;;;;;5091711;28;20040;-68
2023/08/25 01:04:50;;;;;;;51.63;41.95;;;18.60;99.90;;;;;;5057220;28;20094;-68
2023/08/25 01:07:16;;;;;;;57.42;40.95;;;18.60;99.90;;;;;;5055749;28;20122;-68
2023/08/25 01:09:42;;;;;;;52.15;41.00;;;18.70;99.90;;;;;;5072649;28;20170;-68
2023/08/25 01:12:27;;;;;;;52.35;39.15;;;18.60;99.90;;;;;;5055316;28;20111;-69
2023/08/25 01:15:08;;;;;;;56.22;40.58;;;18.70;99.90;;;;;;5091620;28;20055;-69
2023/08/25 01:17:56;;;;;;;56.35;39.15;;;18.70;99.90;;;;;;5073598;28;20035;-69
2023/08/25 01:20:22;;;;;;;56.72;39.85;;;18.60;99.90;;;;;;5072977;28;20044;-69
2023/08/25 01:23:02;;;;;;;56.75;40.35;;;18.60;99.90;;;;;;5073503;28;20059;-69
2023/08/25 01:25:30;;;;;;;54.08;42.00;;;18.50;99.90;;;;;;5056591;28;20079;-69
2023/08/25 01:27:57;;;;;;;62.53;44.17;;;18.50;99.90;;;;;;5091078;28;20493;-69
2023/08/25 01:30:24;;;;;;;56.05;38.38;;;18.50;99.90;;;;;;5091356;28;20033;-69
2023/08/25 01:32:53;;;;;;;60.47;43.63;;;18.50;99.90;;;;;;5091321;28;20051;-69
2023/08/25 01:35:27;;;;;;;58.17;44.00;;;18.60;99.90;;;;;;5072327;28;20511;-69
2023/08/25 01:38:08;;;;;;;52.60;41.40;;;18.60;99.90;;;;;;5091646;28;20093;-69
2023/08/25 01:41:08;;;;;;;61.25;43.47;;;18.50;99.90;;;;;;5072980;28;20051;-69
2023/08/25 01:43:39;;;;;;;62.17;45.50;;;18.50;99.90;;;;;;5075218;28;20055;-69
2023/08/25 01:46:08;;;;;;;61.58;44.45;;;18.50;99.90;;;;;;5073948;28;20044;-69
2023/08/25 01:48:34;;;;;;;69.38;47.67;;;18.60;99.90;;;;;;5076041;28;20036;-69
2023/08/25 01:51:00;;;;;;;51.38;40.28;;;18.50;99.90;;;;;;5077123;28;20044;-69
2023/08/25 01:53:27;;;;;;;53.88;40.92;;;18.60;99.90;;;;;;5094251;28;20059;-69
2023/08/25 01:55:53;;;;;;;59.95;42.72;;;18.60;99.90;;;;;;5076338;28;20370;-69
2023/08/25 01:58:19;;;;;;;63.10;43.30;;;18.50;99.90;;;;;;5076593;28;20043;-69
2023/08/25 02:00:44;;;;;;;62.45;46.90;;;18.60;99.90;;;;;;5076528;28;20051;-69
2023/08/25 02:03:13;;;;;;;62.17;42.90;;;18.60;99.90;;;;;;5093906;28;20447;-69
2023/08/25 02:05:40;;;;;;;66.75;52.42;;;18.60;99.90;;;;;;5059749;28;20054;-69
2023/08/25 02:08:07;;;;;;;67.30;45.95;;;18.60;99.90;;;;;;5076313;28;20101;-68
2023/08/25 02:10:33;;;;;;;67.60;47.53;;;18.70;99.90;;;;;;5075652;28;20485;-68
2023/08/25 02:12:58;;;;;;;71.75;46.28;;;18.70;99.90;;;;;;5076767;28;20131;-68
2023/08/25 02:15:24;;;;;;;66.18;47.28;;;18.60;99.90;;;;;;5075602;28;20036;-68
2023/08/25 02:17:50;;;;;;;69.10;46.78;;;18.60;99.90;;;;;;5094546;28;20530;-68
2023/08/25 02:20:16;;;;;;;77.13;50.22;;;18.60;99.90;;;;;;5059564;28;20036;-68
2023/08/25 02:22:41;;;;;;;77.30;49.28;;;18.70;99.90;;;;;;5093648;28;20054;-68
2023/08/25 02:25:07;;;;;;;80.15;51.60;;;18.60;99.90;;;;;;5094298;28;20484;-68
2023/08/25 02:27:33;;;;;;;89.20;51.05;;;18.70;99.90;;;;;;5059398;28;20039;-68
2023/08/25 02:29:59;;;;;;;71.07;46.83;;;18.60;99.90;;;;;;5075308;28;20476;-68
2023/08/25 02:32:24;;;;;;;77.70;47.63;;;18.60;99.90;;;;;;5075784;28;20043;-68
2023/08/25 02:34:50;;;;;;;76.85;50.35;;;18.60;99.90;;;;;;5076262;28;20032;-68
2023/08/25 02:37:16;;;;;;;81.18;48.38;;;18.60;99.90;;;;;;5093177;28;20039;-68
2023/08/25 02:39:41;;;;;;;75.53;48.03;;;18.60;99.90;;;;;;5076271;28;20047;-68
2023/08/25 02:42:07;;;;;;;76.25;48.80;;;18.70;99.90;;;;;;5093798;28;20040;-68
2023/08/25 02:44:33;;;;;;;82.57;50.33;;;18.50;99.90;;;;;;5075423;28;20044;-68
2023/08/25 02:46:59;;;;;;;82.88;49.17;;;18.70;99.90;;;;;;5075815;28;20044;-68
2023/08/25 02:49:25;;;;;;;91.90;53.85;;;18.60;99.90;;;;;;5059151;28;20500;-68
2023/08/25 02:51:50;;;;;;;76.03;49.22;;;18.50;99.90;;;;;;5075301;28;20044;-68
2023/08/25 02:54:16;;;;;;;82.22;51.15;;;18.50;99.90;;;;;;5075397;28;20501;-68
2023/08/25 02:56:41;;;;;;;90.22;52.50;;;18.60;99.90;;;;;;5075292;28;20047;-68
2023/08/25 02:59:07;;;;;;;84.38;51.50;;;18.70;99.90;;;;;;5057394;28;20048;-68
2023/08/25 03:01:33;;;;;;;93.40;57.05;;;18.50;99.90;;;;;;5075361;28;20473;-68
2023/08/25 03:03:59;;;;;;;89.25;53.90;;;18.60;99.90;;;;;;5075713;28;20057;-68
2023/08/25 03:06:24;;;;;;;98.53;58.88;;;18.60;99.90;;;;;;5092820;28;20040;-68
2023/08/25 03:08:50;;;;;;;95.38;57.05;;;18.60;99.90;;;;;;5075407;28;20078;-68
2023/08/25 03:11:16;;;;;;;88.43;57.20;;;18.70;99.90;;;;;;5074871;28;20067;-68
2023/08/25 03:13:42;;;;;;;81.22;54.53;;;18.60;99.90;;;;;;5092411;28;20033;-69
2023/08/25 03:16:07;;;;;;;107.03;61.10;;;18.70;99.90;;;;;;5074896;28;20040;-68
2023/08/25 03:18:34;;;;;;;90.13;56.22;;;18.70;99.90;;;;;;5093433;28;20075;-68
2023/08/25 03:21:00;;;;;;;102.85;62.03;;;18.60;99.90;;;;;;5074630;28;20043;-68
2023/08/25 03:23:25;;;;;;;101.50;63.40;;;18.70;99.90;;;;;;5093271;28;20043;-68
2023/08/25 03:25:51;;;;;;;132.93;69.82;;;18.70;99.90;;;;;;5073830;28;20035;-68
2023/08/25 03:28:17;;;;;;;125.57;65.68;;;18.60;99.90;;;;;;5092960;28;20082;-68
2023/08/25 03:30:42;;;;;;;97.25;62.47;;;18.50;99.90;;;;;;5093132;28;20028;-68
2023/08/25 03:33:08;;;;;;;188.32;88.53;;;18.60;99.90;;;;;;5073982;28;20040;-68
2023/08/25 03:35:35;;;;;;;106.65;62.22;;;18.70;99.90;;;;;;5093069;28;20040;-68
2023/08/25 03:38:00;;;;;;;129.60;71.50;;;18.60;99.90;;;;;;5058279;28;20128;-68
2023/08/25 03:40:26;;;;;;;93.53;63.53;;;18.70;99.90;;;;;;5057060;28;20119;-68
2023/08/25 03:42:52;;;;;;;101.88;64.20;;;18.60;99.90;;;;;;5074643;28;20036;-68
2023/08/25 03:45:18;;;;;;;113.15;64.60;;;18.70;99.90;;;;;;5074634;28;20111;-68
2023/08/25 03:47:44;;;;;;;98.40;61.88;;;18.70;99.90;;;;;;5073921;28;20122;-68
2023/08/25 03:50:10;;;;;;;159.20;78.00;;;18.60;99.90;;;;;;5074506;28;20040;-68
2023/08/25 03:52:36;;;;;;;96.50;60.85;;;18.70;99.90;;;;;;5073686;28;20541;-69
2023/08/25 03:55:03;;;;;;;116.82;73.05;;;18.70;99.90;;;;;;5091872;28;20120;-68
2023/08/25 03:57:29;;;;;;;104.43;67.05;;;18.50;99.90;;;;;;5074169;28;20040;-68
2023/08/25 03:59:54;;;;;;;108.50;66.00;;;18.70;99.90;;;;;;5074447;28;20552;-68
2023/08/25 04:02:20;;;;;;;123.90;72.55;;;18.60;99.90;;;;;;5073527;28;20048;-68
2023/08/25 04:04:46;;;;;;;124.18;66.97;;;18.60;99.90;;;;;;5074457;28;20127;-68
2023/08/25 04:07:13;;;;;;;98.13;55.83;;;18.60;99.90;;;;;;5092207;28;20062;-68
2023/08/25 04:09:39;;;;;;;101.85;59.25;;;18.60;99.90;;;;;;5073187;28;20051;-68
2023/08/25 04:12:05;;;;;;;95.20;59.60;;;18.60;99.90;;;;;;5074123;28;20035;-68
2023/08/25 04:14:31;;;;;;;104.30;61.97;;;18.70;99.90;;;;;;5092448;28;20115;-68
2023/08/25 04:16:57;;;;;;;121.93;69.80;;;18.60;99.90;;;;;;5073528;28;20488;-68
2023/08/25 04:19:22;;;;;;;137.15;72.95;;;18.60;99.90;;;;;;5074244;28;20051;-68
2023/08/25 04:21:48;;;;;;;114.28;66.30;;;18.60;99.90;;;;;;5074277;28;20046;-69
2023/08/25 04:24:16;;;;;;;144.95;74.57;;;18.70;99.90;;;;;;5073103;28;20039;-68
2023/08/25 04:26:42;;;;;;;177.18;82.38;;;18.70;99.90;;;;;;5092274;28;20084;-68
2023/08/25 04:29:09;;;;;;;131.68;69.68;;;18.70;99.90;;;;;;5091090;28;20028;-68
2023/08/25 04:31:36;;;;;;;136.20;73.82;;;18.60;99.90;;;;;;5057065;28;20047;-68
2023/08/25 04:34:02;;;;;;;180.45;81.45;;;18.60;99.90;;;;;;5074092;28;20085;-69
2023/08/25 04:36:30;;;;;;;143.40;75.68;;;18.60;99.90;;;;;;5091130;28;20111;-68
2023/08/25 04:38:56;;;;;;;139.88;79.07;;;18.60;99.90;;;;;;5057265;28;20043;-68
2023/08/25 04:41:22;;;;;;;154.32;79.20;;;18.60;99.90;;;;;;5092104;28;20035;-68
2023/08/25 04:43:47;;;;;;;150.55;77.72;;;18.70;99.90;;;;;;5073151;28;20036;-68
2023/08/25 04:46:13;;;;;;;138.55;81.38;;;18.70;99.90;;;;;;5056951;28;20562;-68
2023/08/25 04:48:43;;;;;;;158.40;80.82;;;18.70;99.90;;;;;;5057115;28;20077;-68
2023/08/25 04:51:08;;;;;;;133.52;78.45;;;18.60;99.90;;;;;;5056560;28;20404;-68
2023/08/25 04:53:34;;;;;;;142.98;84.35;;;18.60;99.90;;;;;;5073501;28;20044;-68
2023/08/25 04:56:00;;;;;;;135.95;79.93;;;18.60;99.90;;;;;;5073943;28;20404;-68
2023/08/25 04:58:26;;;;;;;148.02;83.28;;;18.60;99.90;;;;;;5073308;28;20044;-68
2023/08/25 05:00:52;;;;;;;132.52;82.38;;;18.60;99.90;;;;;;5073245;28;20093;-68
2023/08/25 05:03:18;;;;;;;143.02;82.78;;;18.60;99.90;;;;;;5072376;28;20042;-68
2023/08/25 05:05:44;;;;;;;128.45;78.32;;;18.70;99.90;;;;;;5089187;28;20039;-68
2023/08/25 05:08:10;;;;;;;121.43;76.50;;;18.70;99.90;;;;;;5091532;28;20044;-68
2023/08/25 05:10:35;;;;;;;125.95;76.20;;;18.60;99.90;;;;;;5049510;28;20045;-68
2023/08/25 05:13:01;;;;;;;126.78;76.78;;;18.60;99.90;;;;;;5064821;28;20032;-68
2023/08/25 05:15:27;;;;;;;129.20;82.30;;;18.60;99.90;;;;;;5066369;28;20028;-68
2023/08/25 05:17:52;;;;;;;117.03;74.82;;;18.70;99.90;;;;;;5053911;28;20044;-68
2023/08/25 05:20:22;;;;;;;118.43;74.97;;;18.70;99.90;;;;;;5089515;28;20481;-69
2023/08/25 05:22:48;;;;;;;117.80;78.32;;;18.70;99.90;;;;;;5059403;28;20129;-69
2023/08/25 05:25:14;;;;;;;114.90;75.47;;;18.70;99.90;;;;;;5075136;28;20043;-69
2023/08/25 05:27:40;;;;;;;97.55;69.60;;;18.60;99.90;;;;;;5093294;28;20122;-69
2023/08/25 05:30:06;;;;;;;114.13;73.63;;;18.70;99.90;;;;;;5076401;28;20036;-68
2023/08/25 05:32:32;;;;;;;97.15;68.28;;;18.60;99.90;;;;;;5094785;28;20512;-68
2023/08/25 05:34:58;;;;;;;94.20;68.30;;;18.60;99.90;;;;;;5077649;28;20123;-68
2023/08/25 05:37:24;;;;;;;86.07;63.97;;;18.60;99.90;;;;;;5077293;28;20052;-68
2023/08/25 05:39:49;;;;;;;91.32;64.93;;;18.70;99.90;;;;;;5094674;28;20469;-68
2023/08/25 05:42:16;;;;;;;76.32;60.40;;;18.60;99.90;;;;;;5077116;28;20460;-68
2023/08/25 05:44:41;;;;;;;72.60;56.45;;;18.60;99.90;;;;;;5060469;28;20058;-69
2023/08/25 05:47:07;;;;;;;73.78;56.88;;;18.60;99.90;;;;;;5093129;28;20115;-68
2023/08/25 05:49:33;;;;;;;74.15;50.67;;;18.70;99.90;;;;;;5059313;28;20426;-69
2023/08/25 05:51:58;;;;;;;59.85;46.78;;;18.60;99.90;;;;;;5076476;28;20463;-68
2023/08/25 05:54:24;;;;;;;71.13;60.13;;;18.70;99.90;;;;;;5075254;28;20044;-69
2023/08/25 05:56:52;;;;;;;74.07;57.72;;;18.60;99.90;;;;;;5076042;28;20454;-69
2023/08/25 05:59:17;;;;;;;66.72;56.17;;;18.70;99.90;;;;;;5088175;28;20044;-68
2023/08/25 06:01:43;;;;;;;62.88;55.83;;;18.60;99.90;;;;;;5093705;28;20050;-68
2023/08/25 06:04:09;;;;;;;65.43;55.28;;;18.60;99.90;;;;;;5074461;28;20048;-68
2023/08/25 06:06:35;;;;;;;64.20;57.88;;;18.70;99.90;;;;;;5092470;28;20094;-68
2023/08/25 06:09:00;;;;;;;59.85;52.72;;;18.70;99.90;;;;;;5075351;28;20036;-68
2023/08/25 06:11:26;;;;;;;55.58;48.13;;;18.70;99.90;;;;;;5076202;28;20405;-68
2023/08/25 06:13:52;;;;;;;59.08;52.00;;;18.70;99.90;;;;;;5076358;28;20032;-68
2023/08/25 06:16:17;;;;;;;52.97;46.65;;;18.60;99.90;;;;;;5093908;28;20484;-68
2023/08/25 06:18:43;;;;;;;54.28;44.88;;;18.70;99.90;;;;;;5073021;28;20044;-68
2023/08/25 06:21:09;;;;;;;54.75;49.08;;;18.80;99.90;;;;;;5056249;28;20044;-68
2023/08/25 06:23:35;;;;;;;44.97;39.70;;;18.80;99.90;;;;;;5056442;28;20071;-68
2023/08/25 06:26:01;;;;;;;42.15;38.10;;;18.80;99.90;;;;;;5092146;28;20121;-68
2023/08/25 06:28:26;;;;;;;42.40;37.95;;;18.80;99.90;;;;;;5055416;28;20788;-68
2023/08/25 06:30:52;;;;;;;36.22;32.35;;;18.80;99.90;;;;;;5051968;28;20048;-68
2023/08/25 06:33:18;;;;;;;37.08;29.38;;;18.90;99.90;;;;;;5060155;28;20044;-68
2023/08/25 06:35:44;;;;;;;38.95;35.40;;;18.90;99.90;;;;;;5090867;28;20393;-68
2023/08/25 06:38:09;;;;;;;32.08;25.83;;;18.90;99.90;;;;;;5091692;28;20521;-68
2023/08/25 06:40:36;;;;;;;35.40;28.25;;;19.00;99.90;;;;;;5065967;28;20127;-68
2023/08/25 06:43:02;;;;;;;34.15;30.40;;;19.00;99.90;;;;;;5066764;28;20501;-68
2023/08/25 06:45:30;;;;;;;33.25;29.95;;;19.10;99.90;;;;;;5067793;28;20046;-68
2023/08/25 06:47:56;;;;;;;30.27;27.00;;;19.10;99.90;;;;;;5073238;28;20040;-68
2023/08/25 06:50:23;;;;;;;30.00;27.02;;;19.10;99.90;;;;;;5072325;28;20047;-68
2023/08/25 06:52:49;;;;;;;25.92;20.45;;;19.20;99.90;;;;;;5067900;28;20052;-68
2023/08/25 06:55:17;;;;;;;24.70;21.52;;;19.10;99.90;;;;;;5072473;28;20409;-68
2023/08/25 06:57:45;;;;;;;27.92;24.52;;;19.20;99.90;;;;;;5087774;28;20111;-68
2023/08/25 07:00:12;;;;;;;29.38;25.08;;;19.20;99.90;;;;;;5056151;28;20143;-67
2023/08/25 07:02:40;;;;;;;26.33;23.55;;;19.30;99.90;;;;;;5056057;28;20055;-67
2023/08/25 07:05:06;;;;;;;24.73;20.50;;;19.30;99.90;;;;;;5054753;28;20043;-67
2023/08/25 07:07:33;;;;;;;29.15;20.48;;;19.20;99.90;;;;;;5072509;28;20043;-68
2023/08/25 07:09:59;;;;;;;23.75;21.17;;;19.20;99.90;;;;;;5089229;28;20044;-68
2023/08/25 07:12:24;;;;;;;24.02;21.40;;;19.20;99.90;;;;;;5071391;28;20044;-67
2023/08/25 07:14:52;;;;;;;23.83;20.42;;;19.20;99.90;;;;;;5090802;28;20047;-67
2023/08/25 07:17:17;;;;;;;25.73;23.02;;;19.30;99.90;;;;;;5071901;28;20047;-67
2023/08/25 07:19:43;;;;;;;27.05;23.98;;;19.30;99.90;;;;;;5066985;28;20393;-66
2023/08/25 07:22:09;;;;;;;28.33;24.95;;;19.40;99.90;;;;;;5072276;28;20048;-67
2023/08/25 07:24:34;;;;;;;31.58;28.45;;;19.40;99.90;;;;;;5091060;28;20071;-67
2023/08/25 07:27:00;;;;;;;24.13;20.60;;;19.40;99.90;;;;;;5054682;28;20032;-67
2023/08/25 07:29:26;;;;;;;27.05;22.70;;;19.40;99.90;;;;;;5072233;28;20471;-67
2023/08/25 07:31:52;;;;;;;26.58;23.63;;;19.40;99.90;;;;;;5064751;28;20028;-67
2023/08/25 07:34:18;;;;;;;22.35;19.27;;;19.40;99.90;;;;;;5089227;28;20472;-68
2023/08/25 07:36:44;;;;;;;19.80;16.17;;;19.50;99.90;;;;;;5070986;28;20046;-68
2023/08/25 07:39:10;;;;;;;25.50;19.35;;;19.60;99.90;;;;;;5089510;28;20040;-68
2023/08/25 07:41:36;;;;;;;23.02;18.15;;;19.50;99.90;;;;;;5071065;28;20079;-68
2023/08/25 07:44:02;;;;;;;25.50;19.73;;;19.60;99.90;;;;;;5042448;28;20122;-67
2023/08/25 07:46:29;;;;;;;27.30;19.77;;;19.60;99.90;;;;;;5050896;28;20499;-68
2023/08/25 07:48:54;;;;;;;23.92;20.00;;;19.60;99.90;;;;;;5088884;28;20035;-67
2023/08/25 07:51:20;;;;;;;25.85;21.48;;;19.60;99.90;;;;;;5074657;28;20036;-67
2023/08/25 07:53:46;;;;;;;24.83;22.00;;;19.70;99.90;;;;;;5091287;28;20044;-67
2023/08/25 07:56:12;;;;;;;26.65;21.13;;;19.70;99.90;;;;;;5044571;28;20489;-67
2023/08/25 07:58:38;;;;;;;24.55;19.00;;;19.80;99.90;;;;;;5074714;28;20040;-69
2023/08/25 08:01:04;;;;;;;22.73;18.13;;;19.90;99.90;;;;;;5092019;28;20039;-66
2023/08/25 08:03:31;;;;;;;21.90;17.67;;;19.90;99.90;;;;;;5092580;28;20043;-69
2023/08/25 08:05:56;;;;;;;19.77;14.55;;;19.80;99.90;;;;;;5074482;28;20097;-69
2023/08/25 08:08:22;;;;;;;26.02;19.30;;;19.80;99.90;;;;;;5057900;28;20036;-69
2023/08/25 08:10:48;;;;;;;23.48;17.33;;;19.80;99.90;;;;;;5059226;28;20327;-69
2023/08/25 08:13:13;;;;;;;28.45;19.38;;;19.80;99.90;;;;;;5073509;28;20152;-69
2023/08/25 08:15:39;;;;;;;24.10;17.98;;;19.90;99.90;;;;;;5073321;28;20040;-68
2023/08/25 08:18:05;;;;;;;25.25;20.63;;;19.80;99.90;;;;;;5092613;28;20043;-69
2023/08/25 08:20:33;;;;;;;22.17;16.52;;;19.90;99.90;;;;;;5057454;28;20040;-69
2023/08/25 08:23:00;;;;;;;24.77;17.85;;;19.90;99.90;;;;;;5074012;28;20392;-70
2023/08/25 08:25:26;;;;;;;24.33;17.85;;;19.90;99.90;;;;;;5074051;28;20415;-69
2023/08/25 08:27:51;;;;;;;27.75;17.52;;;20.00;99.90;;;;;;5074056;28;20036;-69
2023/08/25 08:30:19;;;;;;;24.85;18.00;;;20.00;99.90;;;;;;5073485;28;20036;-69
2023/08/25 08:32:45;;;;;;;27.52;18.88;;;20.00;99.90;;;;;;5074235;28;20396;-70
2023/08/25 08:35:12;;;;;;;25.98;19.73;;;20.00;99.90;;;;;;5073263;28;20048;-69
2023/08/25 08:37:39;;;;;;;27.83;19.45;;;20.10;99.90;;;;;;5074090;28;20083;-69
2023/08/25 08:40:05;;;;;;;29.10;19.27;;;20.10;99.90;;;;;;5074234;28;20047;-69
2023/08/25 08:42:33;;;;;;;26.15;20.42;;;20.10;99.90;;;;;;5091273;28;20054;-69
2023/08/25 08:45:07;;;;;;;28.40;20.30;;;20.10;99.90;;;;;;5074581;28;20044;-69
2023/08/25 08:47:34;;;;;;;27.13;20.50;;;20.20;99.90;;;;;;5073717;28;20036;-69
2023/08/25 08:50:01;;;;;;;26.27;19.27;;;20.20;99.90;;;;;;5073662;28;20118;-69
2023/08/25 08:52:28;;;;;;;25.83;18.85;;;20.30;99.90;;;;;;5070438;28;20485;-69
2023/08/25 08:54:57;;;;;;;25.35;19.60;;;20.30;99.90;;;;;;5054278;28;20049;-69
2023/08/25 08:57:24;;;;;;;25.40;20.08;;;20.30;99.90;;;;;;5073412;28;20400;-69
2023/08/25 08:59:52;;;;;;;26.77;19.27;;;20.30;99.90;;;;;;5074723;28;20463;-69
2023/08/25 09:02:21;;;;;;;27.05;20.48;;;20.30;99.90;;;;;;5074372;28;20556;-69
2023/08/25 09:04:50;;;;;;;25.63;18.40;;;20.30;99.90;;;;;;5073608;28;20511;-70
2023/08/25 09:07:18;;;;;;;19.98;17.52;;;20.40;99.90;;;;;;5074391;28;20048;-69
2023/08/25 09:09:45;;;;;;;24.35;17.25;;;20.50;99.90;;;;;;5074409;28;20117;-69
2023/08/25 09:12:13;;;;;;;24.02;19.60;;;20.60;99.90;;;;;;5057294;28;20040;-69
2023/08/25 09:14:39;;;;;;;28.40;20.27;;;20.80;99.90;;;;;;5074594;28;20498;-69
2023/08/25 09:17:06;;;;;;;26.88;18.58;;;21.00;99.90;;;;;;5073862;28;20082;-69
2023/08/25 09:19:33;;;;;;;26.65;18.55;;;21.00;99.90;;;;;;5074629;28;20048;-69
2023/08/25 09:21:59;;;;;;;22.42;16.73;;;21.10;99.90;;;;;;5074887;28;20524;-68
2023/08/25 09:24:26;;;;;;;24.92;17.25;;;21.20;99.90;;;;;;5074235;28;20473;-67
2023/08/25 09:26:53;;;;;;;27.70;20.02;;;21.30;99.90;;;;;;5073805;28;20425;-67
2023/08/25 09:29:18;;;;;;;23.83;19.70;;;21.40;99.90;;;;;;5057465;28;20035;-67
2023/08/25 09:31:44;;;;;;;24.02;15.93;;;21.40;99.90;;;;;;5056409;28;20032;-66
2023/08/25 09:34:13;;;;;;;22.50;15.18;;;21.40;99.90;;;;;;5073880;28;20043;-64
2023/08/25 09:36:57;;;;;;;25.20;17.38;;;21.40;99.90;;;;;;5073345;28;20044;-66
2023/08/25 09:39:23;;;;;;;23.20;13.90;;;21.40;99.90;;;;;;5074052;28;20063;-66
2023/08/25 09:41:50;;;;;;;22.17;14.50;;;21.30;99.90;;;;;;5074189;28;20283;-66
2023/08/25 09:44:16;;;;;;;19.20;14.43;;;21.30;99.90;;;;;;5073565;28;20040;-66
2023/08/25 09:46:44;;;;;;;19.95;15.63;;;21.20;99.90;;;;;;5072559;28;20477;-66
2023/08/25 09:49:11;;;;;;;24.00;17.48;;;21.10;99.90;;;;;;5073785;28;20043;-67
2023/08/25 09:51:47;;;;;;;25.40;17.83;;;21.10;99.90;;;;;;5073802;28;20059;-66
2023/08/25 09:54:15;;;;;;;25.88;18.77;;;21.00;99.90;;;;;;5072676;28;20049;-66
2023/08/25 09:56:42;;;;;;;25.48;17.73;;;21.00;99.90;;;;;;5073514;28;20050;-66
2023/08/25 09:59:10;;;;;;;23.88;18.30;;;20.90;99.90;;;;;;5073510;28;20482;-66
2023/08/25 10:01:38;;;;;;;26.35;19.77;;;20.80;99.90;;;;;;5072469;28;20131;-66
2023/08/25 10:04:05;;;;;;;26.73;18.92;;;20.80;99.90;;;;;;5057084;28;20040;-66
2023/08/25 10:06:32;;;;;;;26.98;19.40;;;20.70;99.90;;;;;;5074527;28;20123;-66
2023/08/25 10:08:59;;;;;;;26.23;18.75;;;20.70;99.90;;;;;;5072496;28;20094;-66
2023/08/25 10:11:48;;;;;;;23.98;19.80;;;20.60;99.90;;;;;;5073206;28;20081;-66
2023/08/25 10:14:14;;;;;;;22.27;17.63;;;20.60;99.90;;;;;;5073109;28;20036;-64
2023/08/25 10:16:47;;;;;;;21.73;18.23;;;20.60;99.90;;;;;;5072341;28;20086;-63
2023/08/25 10:19:14;;;;;;;20.98;16.02;;;20.60;99.90;;;;;;5073563;28;20045;-64
2023/08/25 10:21:45;;;;;;;21.20;18.30;;;20.60;99.90;;;;;;5073620;28;20049;-64
2023/08/25 10:24:14;;;;;;;23.83;17.58;;;20.50;99.90;;;;;;5055914;28;20445;-64
2023/08/25 10:26:42;;;;;;;24.65;19.55;;;20.50;99.90;;;;;;5056192;28;20115;-63
2023/08/25 10:29:08;;;;;;;24.23;19.65;;;20.60;99.90;;;;;;5073170;28;20044;-64
2023/08/25 10:31:34;;;;;;;27.25;20.00;;;20.50;99.90;;;;;;5072400;28;20089;-64
2023/08/25 10:33:59;;;;;;;24.45;18.77;;;20.60;99.90;;;;;;5073359;28;20040;-64
2023/08/25 10:36:25;;;;;;;23.10;19.60;;;20.60;99.90;;;;;;5073258;28;20040;-64
2023/08/25 10:38:54;;;;;;;25.60;20.48;;;20.60;99.90;;;;;;5072706;28;20037;-64
2023/08/25 10:41:21;;;;;;;24.33;19.15;;;20.70;99.90;;;;;;5072680;28;20040;-64
2023/08/25 10:43:54;;;;;;;22.30;17.92;;;20.70;99.90;;;;;;5072105;28;20393;-64
2023/08/25 10:46:22;;;;;;;25.33;18.00;;;20.70;99.90;;;;;;5055786;28;20036;-64
2023/08/25 10:48:51;;;;;;;27.00;17.02;;;20.70;99.90;;;;;;5072372;28;20029;-64
2023/08/25 10:51:20;;;;;;;21.30;16.52;;;20.80;99.90;;;;;;5072566;28;20599;-64
2023/08/25 10:53:49;;;;;;;22.55;15.45;;;20.80;99.90;;;;;;5088489;28;20063;-65
2023/08/25 10:56:18;;;;;;;28.40;18.85;;;20.80;99.90;;;;;;5093559;28;20068;-64
2023/08/25 10:58:59;;;;;;;24.58;16.50;;;20.80;99.90;;;;;;5058792;28;20082;-65
2023/08/25 11:01:37;;;;;;;29.63;19.67;;;20.80;99.90;;;;;;5092935;28;20036;-64
2023/08/25 11:04:08;;;;;;;23.27;16.95;;;20.90;99.90;;;;;;5073891;28;20412;-63
2023/08/25 11:06:47;;;;;;;25.80;17.60;;;20.90;99.90;;;;;;5093235;28;20044;-63
2023/08/25 11:09:26;;;;;;;30.60;18.23;;;21.00;99.90;;;;;;5075502;28;20040;-64
2023/08/25 11:11:56;;;;;;;27.85;18.45;;;21.00;99.90;;;;;;5090217;28;20093;-63
2023/08/25 11:14:29;;;;;;;23.85;20.23;;;21.00;99.90;;;;;;5075155;28;20047;-63
2023/08/25 11:16:57;;;;;;;25.37;21.20;;;21.10;99.90;;;;;;5092414;28;20043;-63
2023/08/25 11:19:24;;;;;;;25.50;21.23;;;21.20;99.90;;;;;;5074324;28;20043;-65
2023/08/25 11:22:01;;;;;;;25.67;20.40;;;21.30;99.90;;;;;;5075180;28;20553;-67
2023/08/25 11:24:29;;;;;;;23.73;18.98;;;21.50;99.90;;;;;;5092201;28;20047;-67
2023/08/25 11:27:03;;;;;;;27.95;21.42;;;21.50;99.90;;;;;;5058558;28;20048;-68
2023/08/25 11:29:29;;;;;;;23.02;20.35;;;21.60;99.90;;;;;;5074737;28;20165;-68
2023/08/25 11:31:54;;;;;;;28.75;22.27;;;21.70;99.90;;;;;;5089407;28;20384;-68
2023/08/25 11:34:21;;;;;;;25.17;20.48;;;21.80;99.90;;;;;;5092876;28;20070;-68
2023/08/25 11:36:47;;;;;;;25.88;21.40;;;21.90;99.90;;;;;;5057815;28;20119;-68
2023/08/25 11:39:18;;;;;;;31.13;21.90;;;22.00;99.90;;;;;;5057208;28;20143;-68
2023/08/25 11:41:45;;;;;;;27.58;20.27;;;22.00;99.90;;;;;;5044655;28;20059;-68
2023/08/25 11:44:12;;;;;;;27.98;20.20;;;21.90;99.90;;;;;;5074060;28;20055;-67
2023/08/25 11:46:38;;;;;;;26.33;21.40;;;21.80;99.90;;;;;;5073528;28;20515;-67
2023/08/25 11:49:06;;;;;;;23.23;18.60;;;21.80;99.90;;;;;;5074961;28;20043;-67
2023/08/25 11:51:35;;;;;;;27.80;18.88;;;21.70;99.90;;;;;;5074652;28;20477;-68
2023/08/25 11:54:01;;;;;;;28.05;19.92;;;21.70;99.90;;;;;;5067692;28;20052;-67
2023/08/25 11:56:27;;;;;;;26.00;16.55;;;21.70;99.90;;;;;;5052874;28;20063;-67
2023/08/25 11:58:53;;;;;;;25.35;18.75;;;21.70;99.90;;;;;;5065386;28;20483;-67
2023/08/25 12:01:18;;;;;;;26.38;19.67;;;21.70;99.90;;;;;;5054261;28;20040;-67
2023/08/25 12:03:44;;;;;;;26.15;19.90;;;21.60;99.90;;;;;;5070993;28;20492;-68
2023/08/25 12:06:12;;;;;;;26.10;20.67;;;21.60;99.90;;;;;;5070774;28;20047;-67
2023/08/25 12:08:39;;;;;;;31.75;20.63;;;21.70;99.90;;;;;;5071272;28;20377;-67
2023/08/25 12:11:07;;;;;;;25.77;20.17;;;21.70;99.90;;;;;;5071690;28;20045;-67
2023/08/25 12:13:35;;;;;;;28.63;20.50;;;21.80;99.90;;;;;;5069272;28;20051;-67
2023/08/25 12:16:03;;;;;;;28.10;19.48;;;21.90;99.90;;;;;;5071622;28;20040;-67
2023/08/25 12:18:37;;;;;;;26.65;18.40;;;22.00;99.90;;;;;;5054809;28;20591;-67
2023/08/25 12:21:07;;;;;;;23.48;17.70;;;22.10;99.90;;;;;;5088959;28;20028;-68
2023/08/25 12:23:37;;;;;;;26.58;16.90;;;22.00;99.90;;;;;;5071115;28;20046;-67
2023/08/25 12:26:04;;;;;;;20.83;15.82;;;22.00;99.90;;;;;;5071501;28;20032;-68